CheckWX is a tool to help pilots better visualize weather data.  It is not intended as a substitute for an official pre-flight weather briefing.

21:49:55 UTC

EKAH METAR
Aarhus Airport
Aarhus, Denmark
Current

30 mins ago

EKAH 232120Z AUTO 25001KT 9999NDV NCD 03/00 Q1038
Observed
Feb-23 @ 21:20 UTC
Wind
  • 250° at 1 KTS
Visibility
Cloud Levels
  • Clear skies
Temperature
C / 37°F
Dewpoint
C / 32°F
Humidity
81%
Altimeter
30.65" Hg
Pressure
1037.91 hPa
Previous

60 mins ago

EKAH 232050Z AUTO 20002KT 9999NDV NCD 02/00 Q1038
Observed
Feb-23 @ 20:50 UTC
Wind
  • 200° at 2 KTS
Visibility
Cloud Levels
  • Clear skies
Temperature
C / 36°F
Dewpoint
C / 32°F
Humidity
87%
Altimeter
30.65" Hg
Pressure
1037.91 hPa
Previous

1 hour ago

EKAH 232020Z AUTO 21003KT 9999NDV NCD 03/00 Q1038
Observed
Feb-23 @ 20:20 UTC
Wind
  • 210° at 3 KTS
Visibility
Cloud Levels
  • Clear skies
Temperature
C / 37°F
Dewpoint
C / 32°F
Humidity
81%
Altimeter
30.65" Hg
Pressure
1037.91 hPa